sensor_id;sensor_type;location;lat;lon;timestamp;pressure;altitude;pressure_sealevel;temperature;humidity
3960;BME280;1994;48.640;8.894;2023-03-26T00:01:24;95690.59;;;6.84;96.14
3960;BME280;1994;48.640;8.894;2023-03-26T00:03:52;95690.50;;;6.90;97.14
3960;BME280;1994;48.640;8.894;2023-03-26T00:06:25;95689.53;;;7.03;97.07
3960;BME280;1994;48.640;8.894;2023-03-26T00:08:56;95685.72;;;7.17;96.37
3960;BME280;1994;48.640;8.894;2023-03-26T00:11:25;95705.31;;;7.18;96.23
3960;BME280;1994;48.640;8.894;2023-03-26T00:13:52;95703.41;;;7.13;96.87
3960;BME280;1994;48.640;8.894;2023-03-26T00:16:23;95706.00;;;7.13;96.73
3960;BME280;1994;48.640;8.894;2023-03-26T00:18:49;95706.31;;;7.17;97.12
3960;BME280;1994;48.640;8.894;2023-03-26T00:21:19;95701.19;;;7.17;97.32
3960;BME280;1994;48.640;8.894;2023-03-26T00:23:45;95700.28;;;7.23;97.43
3960;BME280;1994;48.640;8.894;2023-03-26T00:26:14;95685.97;;;7.27;97.36
3960;BME280;1994;48.640;8.894;2023-03-26T00:28:42;95683.25;;;7.22;97.34
3960;BME280;1994;48.640;8.894;2023-03-26T00:31:11;95690.44;;;7.43;96.67
3960;BME280;1994;48.640;8.894;2023-03-26T00:33:39;95684.63;;;7.36;96.42
3960;BME280;1994;48.640;8.894;2023-03-26T00:36:14;95689.66;;;7.31;96.54
3960;BME280;1994;48.640;8.894;2023-03-26T00:38:42;95696.34;;;7.20;97.10
3960;BME280;1994;48.640;8.894;2023-03-26T00:41:13;95692.56;;;7.23;97.13
3960;BME280;1994;48.640;8.894;2023-03-26T00:43:49;95683.03;;;7.35;96.50
3960;BME280;1994;48.640;8.894;2023-03-26T00:46:16;95679.34;;;7.42;96.19
3960;BME280;1994;48.640;8.894;2023-03-26T00:48:43;95673.88;;;7.39;96.24
3960;BME280;1994;48.640;8.894;2023-03-26T00:51:11;95675.66;;;7.27;96.85
3960;BME280;1994;48.640;8.894;2023-03-26T00:53:39;95673.84;;;7.16;97.31
3960;BME280;1994;48.640;8.894;2023-03-26T00:56:06;95681.94;;;7.31;96.63
3960;BME280;1994;48.640;8.894;2023-03-26T00:58:32;95670.28;;;7.40;96.02
3960;BME280;1994;48.640;8.894;2023-03-26T01:01:06;95667.69;;;7.51;95.34
3960;BME280;1994;48.640;8.894;2023-03-26T01:03:35;95662.78;;;7.50;95.40
3960;BME280;1994;48.640;8.894;2023-03-26T01:06:07;95651.69;;;7.38;95.65
3960;BME280;1994;48.640;8.894;2023-03-26T01:08:44;95645.63;;;7.44;96.05
3960;BME280;1994;48.640;8.894;2023-03-26T01:11:22;95650.34;;;7.47;95.68
3960;BME280;1994;48.640;8.894;2023-03-26T01:14:00;95646.09;;;7.41;95.75
3960;BME280;1994;48.640;8.894;2023-03-26T01:22:07;95629.06;;;7.17;97.49
3960;BME280;1994;48.640;8.894;2023-03-26T01:24:40;95638.81;;;7.15;97.67
3960;BME280;1994;48.640;8.894;2023-03-26T01:30:23;95620.22;;;7.24;97.32
3960;BME280;1994;48.640;8.894;2023-03-26T01:38:35;95603.88;;;7.07;97.77
3960;BME280;1994;48.640;8.894;2023-03-26T01:41:44;95612.94;;;7.10;97.82
3960;BME280;1994;48.640;8.894;2023-03-26T01:46:46;95574.88;;;7.12;97.59
3960;BME280;1994;48.640;8.894;2023-03-26T01:49:12;95588.53;;;7.01;97.68
3960;BME280;1994;48.640;8.894;2023-03-26T01:51:40;95575.88;;;6.99;98.08
3960;BME280;1994;48.640;8.894;2023-03-26T01:54:12;95575.53;;;6.96;98.38
3960;BME280;1994;48.640;8.894;2023-03-26T01:57:17;95568.94;;;6.88;98.48
3960;BME280;1994;48.640;8.894;2023-03-26T02:03:15;95559.31;;;6.84;99.12
3960;BME280;1994;48.640;8.894;2023-03-26T02:05:57;95550.91;;;6.88;99.16
3960;BME280;1994;48.640;8.894;2023-03-26T02:11:09;95533.47;;;6.79;99.10
3960;BME280;1994;48.640;8.894;2023-03-26T02:13:43;95527.63;;;6.72;99.15
3960;BME280;1994;48.640;8.894;2023-03-26T02:16:14;95525.84;;;6.72;99.27
3960;BME280;1994;48.640;8.894;2023-03-26T02:18:44;95535.38;;;6.72;99.23
3960;BME280;1994;48.640;8.894;2023-03-26T02:21:14;95524.16;;;6.78;99.25
3960;BME280;1994;48.640;8.894;2023-03-26T02:23:47;95531.22;;;6.71;99.46
3960;BME280;1994;48.640;8.894;2023-03-26T02:26:17;95527.63;;;6.72;99.13
3960;BME280;1994;48.640;8.894;2023-03-26T02:28:43;95516.00;;;6.58;99.71
3960;BME280;1994;48.640;8.894;2023-03-26T02:31:10;95512.31;;;6.77;99.71
3960;BME280;1994;48.640;8.894;2023-03-26T02:33:38;95510.97;;;6.74;99.30
3960;BME280;1994;48.640;8.894;2023-03-26T02:36:06;95507.16;;;6.77;99.22
3960;BME280;1994;48.640;8.894;2023-03-26T02:38:34;95504.59;;;6.77;99.14
3960;BME280;1994;48.640;8.894;2023-03-26T02:41:01;95499.44;;;6.77;99.14
3960;BME280;1994;48.640;8.894;2023-03-26T02:43:27;95502.56;;;6.79;99.10
3960;BME280;1994;48.640;8.894;2023-03-26T02:45:53;95492.50;;;6.89;98.91
3960;BME280;1994;48.640;8.894;2023-03-26T02:48:19;95483.75;;;6.90;98.55
3960;BME280;1994;48.640;8.894;2023-03-26T02:50:46;95476.38;;;6.93;98.38
3960;BME280;1994;48.640;8.894;2023-03-26T02:53:15;95467.41;;;6.96;98.13
3960;BME280;1994;48.640;8.894;2023-03-26T02:55:41;95464.41;;;6.99;98.12
3960;BME280;1994;48.640;8.894;2023-03-26T02:58:07;95457.69;;;6.98;98.30
3960;BME280;1994;48.640;8.894;2023-03-26T03:00:34;95456.19;;;7.02;98.16
3960;BME280;1994;48.640;8.894;2023-03-26T03:03:00;95443.91;;;7.04;98.20
3960;BME280;1994;48.640;8.894;2023-03-26T03:05:30;95433.59;;;7.04;98.06
3960;BME280;1994;48.640;8.894;2023-03-26T03:07:59;95435.25;;;7.10;97.92
3960;BME280;1994;48.640;8.894;2023-03-26T03:10:27;95426.63;;;7.16;97.45
3960;BME280;1994;48.640;8.894;2023-03-26T03:12:53;95425.81;;;7.15;97.72
3960;BME280;1994;48.640;8.894;2023-03-26T03:15:20;95416.97;;;7.23;97.58
3960;BME280;1994;48.640;8.894;2023-03-26T03:17:48;95415.50;;;7.27;96.63
3960;BME280;1994;48.640;8.894;2023-03-26T03:20:15;95417.16;;;7.33;97.20
3960;BME280;1994;48.640;8.894;2023-03-26T03:22:41;95431.06;;;7.32;96.84
3960;BME280;1994;48.640;8.894;2023-03-26T03:25:08;95420.03;;;7.36;96.78
3960;BME280;1994;48.640;8.894;2023-03-26T03:27:42;95418.72;;;7.34;97.01
3960;BME280;1994;48.640;8.894;2023-03-26T03:30:10;95410.66;;;7.30;96.89
3960;BME280;1994;48.640;8.894;2023-03-26T03:32:37;95413.13;;;7.37;96.41
3960;BME280;1994;48.640;8.894;2023-03-26T03:35:03;95412.53;;;7.35;96.83
3960;BME280;1994;48.640;8.894;2023-03-26T03:37:29;95407.47;;;7.40;96.89
3960;BME280;1994;48.640;8.894;2023-03-26T03:39:55;95409.00;;;7.24;96.60
3960;BME280;1994;48.640;8.894;2023-03-26T03:42:21;95400.22;;;7.09;97.05
3960;BME280;1994;48.640;8.894;2023-03-26T03:44:47;95407.13;;;7.20;96.80
3960;BME280;1994;48.640;8.894;2023-03-26T03:47:13;95396.34;;;7.23;96.30
3960;BME280;1994;48.640;8.894;2023-03-26T03:49:40;95395.91;;;7.26;96.74
3960;BME280;1994;48.640;8.894;2023-03-26T03:52:06;95386.44;;;7.15;96.80
3960;BME280;1994;48.640;8.894;2023-03-26T03:54:32;95390.13;;;7.19;96.86
3960;BME280;1994;48.640;8.894;2023-03-26T03:56:58;95398.84;;;7.18;96.78
3960;BME280;1994;48.640;8.894;2023-03-26T03:59:24;95384.06;;;7.25;96.36
3960;BME280;1994;48.640;8.894;2023-03-26T04:01:50;95373.28;;;7.28;95.92
3960;BME280;1994;48.640;8.894;2023-03-26T04:04:16;95376.97;;;7.32;95.77
3960;BME280;1994;48.640;8.894;2023-03-26T04:06:42;95370.91;;;7.26;95.81
3960;BME280;1994;48.640;8.894;2023-03-26T04:09:08;95376.22;;;7.20;96.08
3960;BME280;1994;48.640;8.894;2023-03-26T04:11:35;95352.47;;;7.18;96.34
3960;BME280;1994;48.640;8.894;2023-03-26T04:14:01;95350.00;;;7.23;96.26
3960;BME280;1994;48.640;8.894;2023-03-26T04:16:27;95358.34;;;7.02;96.98
3960;BME280;1994;48.640;8.894;2023-03-26T04:18:53;95362.59;;;7.08;96.96
3960;BME280;1994;48.640;8.894;2023-03-26T04:21:19;95342.47;;;7.05;97.21
3960;BME280;1994;48.640;8.894;2023-03-26T04:23:46;95335.47;;;7.17;96.66
3960;BME280;1994;48.640;8.894;2023-03-26T04:26:15;95335.84;;;7.09;97.15
3960;BME280;1994;48.640;8.894;2023-03-26T04:28:57;95335.03;;;7.20;95.83
3960;BME280;1994;48.640;8.894;2023-03-26T04:31:25;95335.75;;;7.04;97.20
3960;BME280;1994;48.640;8.894;2023-03-26T04:33:55;95328.56;;;7.06;97.11
3960;BME280;1994;48.640;8.894;2023-03-26T04:36:29;95317.66;;;6.99;96.99
3960;BME280;1994;48.640;8.894;2023-03-26T04:38:57;95316.25;;;7.08;97.14
3960;BME280;1994;48.640;8.894;2023-03-26T04:41:27;95314.22;;;7.10;96.61
3960;BME280;1994;48.640;8.894;2023-03-26T04:43:54;95313.13;;;7.06;96.76
3960;BME280;1994;48.640;8.894;2023-03-26T04:46:22;95299.91;;;7.14;96.48
3960;BME280;1994;48.640;8.894;2023-03-26T04:48:53;95295.81;;;7.18;96.29
3960;BME280;1994;48.640;8.894;2023-03-26T04:51:34;95289.59;;;7.14;96.63
3960;BME280;1994;48.640;8.894;2023-03-26T04:54:03;95295.19;;;7.11;96.59
3960;BME280;1994;48.640;8.894;2023-03-26T04:56:51;95290.03;;;7.11;96.57
3960;BME280;1994;48.640;8.894;2023-03-26T04:59:30;95277.88;;;7.23;95.91
3960;BME280;1994;48.640;8.894;2023-03-26T05:02:00;95280.00;;;7.26;96.01
3960;BME280;1994;48.640;8.894;2023-03-26T05:04:27;95275.88;;;7.25;95.77
3960;BME280;1994;48.640;8.894;2023-03-26T05:06:58;95284.56;;;7.07;96.40
3960;BME280;1994;48.640;8.894;2023-03-26T05:09:25;95290.97;;;7.05;96.41
3960;BME280;1994;48.640;8.894;2023-03-26T05:11:51;95291.16;;;7.15;95.85
3960;BME280;1994;48.640;8.894;2023-03-26T05:14:18;95280.19;;;7.08;96.26
3960;BME280;1994;48.640;8.894;2023-03-26T05:16:46;95270.47;;;7.10;96.65
3960;BME280;1994;48.640;8.894;2023-03-26T05:19:13;95265.69;;;7.02;96.98
3960;BME280;1994;48.640;8.894;2023-03-26T05:21:39;95260.69;;;7.12;96.74
3960;BME280;1994;48.640;8.894;2023-03-26T05:24:05;95241.81;;;7.23;96.16
3960;BME280;1994;48.640;8.894;2023-03-26T05:26:32;95219.66;;;7.22;95.87
3960;BME280;1994;48.640;8.894;2023-03-26T05:28:59;95217.63;;;7.24;95.47
3960;BME280;1994;48.640;8.894;2023-03-26T05:31:27;95219.53;;;7.28;95.21
3960;BME280;1994;48.640;8.894;2023-03-26T05:33:56;95219.03;;;7.31;94.33
3960;BME280;1994;48.640;8.894;2023-03-26T05:36:23;95218.88;;;7.38;94.63
3960;BME280;1994;48.640;8.894;2023-03-26T05:38:49;95206.53;;;7.40;93.90
3960;BME280;1994;48.640;8.894;2023-03-26T05:41:17;95199.06;;;7.38;93.53
3960;BME280;1994;48.640;8.894;2023-03-26T05:43:43;95192.19;;;7.44;93.76
3960;BME280;1994;48.640;8.894;2023-03-26T05:46:10;95185.94;;;7.40;92.97
3960;BME280;1994;48.640;8.894;2023-03-26T05:48:36;95186.09;;;7.50;92.60
3960;BME280;1994;48.640;8.894;2023-03-26T05:51:03;95191.59;;;7.58;92.76
3960;BME280;1994;48.640;8.894;2023-03-26T05:53:30;95187.09;;;7.65;92.80
3960;BME280;1994;48.640;8.894;2023-03-26T05:55:57;95173.25;;;7.55;92.59
3960;BME280;1994;48.640;8.894;2023-03-26T05:58:28;95178.41;;;7.55;92.44
3960;BME280;1994;48.640;8.894;2023-03-26T06:01:07;95172.34;;;7.44;92.61
3960;BME280;1994;48.640;8.894;2023-03-26T06:03:36;95179.84;;;7.46;92.01
3960;BME280;1994;48.640;8.894;2023-03-26T06:06:11;95168.47;;;7.42;92.23
3960;BME280;1994;48.640;8.894;2023-03-26T06:08:46;95160.31;;;7.50;92.11
3960;BME280;1994;48.640;8.894;2023-03-26T06:11:14;95158.16;;;7.42;92.81
3960;BME280;1994;48.640;8.894;2023-03-26T06:13:41;95154.13;;;7.51;92.39
3960;BME280;1994;48.640;8.894;2023-03-26T06:16:09;95151.56;;;7.51;92.34
3960;BME280;1994;48.640;8.894;2023-03-26T06:18:36;95145.66;;;7.50;92.26
3960;BME280;1994;48.640;8.894;2023-03-26T06:21:03;95152.06;;;7.48;92.55
3960;BME280;1994;48.640;8.894;2023-03-26T06:23:29;95151.50;;;7.46;93.11
3960;BME280;1994;48.640;8.894;2023-03-26T06:25:55;95140.66;;;7.44;93.54
3960;BME280;1994;48.640;8.894;2023-03-26T06:28:22;95122.63;;;7.44;93.74
3960;BME280;1994;48.640;8.894;2023-03-26T06:30:49;95128.94;;;7.53;93.38
3960;BME280;1994;48.640;8.894;2023-03-26T06:33:16;95127.84;;;7.49;93.38
3960;BME280;1994;48.640;8.894;2023-03-26T06:35:43;95117.66;;;7.59;91.97
3960;BME280;1994;48.640;8.894;2023-03-26T06:38:10;95107.38;;;7.59;92.05
3960;BME280;1994;48.640;8.894;2023-03-26T06:40:38;95110.34;;;7.51;92.02
3960;BME280;1994;48.640;8.894;2023-03-26T06:43:04;95120.25;;;7.59;91.57
3960;BME280;1994;48.640;8.894;2023-03-26T06:45:31;95122.16;;;7.47;92.88
3960;BME280;1994;48.640;8.894;2023-03-26T06:47:57;95108.03;;;7.49;91.94
3960;BME280;1994;48.640;8.894;2023-03-26T06:50:23;95112.84;;;7.46;92.39
3960;BME280;1994;48.640;8.894;2023-03-26T06:52:49;95086.56;;;7.44;92.58
3960;BME280;1994;48.640;8.894;2023-03-26T06:55:17;95079.91;;;7.48;93.22
3960;BME280;1994;48.640;8.894;2023-03-26T06:57:51;95090.69;;;7.45;93.12
3960;BME280;1994;48.640;8.894;2023-03-26T07:00:18;95070.88;;;7.45;93.17
3960;BME280;1994;48.640;8.894;2023-03-26T07:02:44;95067.56;;;7.50;93.85
3960;BME280;1994;48.640;8.894;2023-03-26T07:05:11;95062.53;;;7.60;93.54
3960;BME280;1994;48.640;8.894;2023-03-26T07:07:37;95062.06;;;7.63;93.93
3960;BME280;1994;48.640;8.894;2023-03-26T07:10:04;95048.03;;;7.54;94.23
3960;BME280;1994;48.640;8.894;2023-03-26T07:12:30;95042.50;;;7.67;94.42
3960;BME280;1994;48.640;8.894;2023-03-26T07:14:56;95051.31;;;7.71;94.48
3960;BME280;1994;48.640;8.894;2023-03-26T07:17:22;95045.13;;;7.72;94.63
3960;BME280;1994;48.640;8.894;2023-03-26T07:19:50;95042.03;;;7.70;94.84
3960;BME280;1994;48.640;8.894;2023-03-26T07:22:23;95002.28;;;7.66;95.15
3960;BME280;1994;48.640;8.894;2023-03-26T07:24:49;95026.06;;;7.73;96.37
3960;BME280;1994;48.640;8.894;2023-03-26T07:28:04;95016.84;;;7.77;93.72
3960;BME280;1994;48.640;8.894;2023-03-26T07:31:04;95011.69;;;7.77;93.13
3960;BME280;1994;48.640;8.894;2023-03-26T07:37:15;95019.88;;;7.69;94.20
3960;BME280;1994;48.640;8.894;2023-03-26T07:42:48;95014.50;;;7.75;94.14
3960;BME280;1994;48.640;8.894;2023-03-26T07:45:29;94997.97;;;7.71;95.40
3960;BME280;1994;48.640;8.894;2023-03-26T07:47:59;95008.63;;;7.80;95.92
3960;BME280;1994;48.640;8.894;2023-03-26T07:50:25;95009.66;;;7.79;96.55
3960;BME280;1994;48.640;8.894;2023-03-26T07:52:52;95004.06;;;7.87;96.63
3960;BME280;1994;48.640;8.894;2023-03-26T07:55:18;94994.88;;;7.96;98.50
3960;BME280;1994;48.640;8.894;2023-03-26T08:00:25;94991.94;;;8.14;100.00
3960;BME280;1994;48.640;8.894;2023-03-26T08:03:22;94984.69;;;7.84;98.54
3960;BME280;1994;48.640;8.894;2023-03-26T08:06:22;94976.94;;;8.11;99.20
3960;BME280;1994;48.640;8.894;2023-03-26T08:08:57;94972.28;;;8.08;99.23
3960;BME280;1994;48.640;8.894;2023-03-26T08:22:34;94969.94;;;7.75;100.00
3960;BME280;1994;48.640;8.894;2023-03-26T08:25:25;94957.59;;;7.82;100.00
3960;BME280;1994;48.640;8.894;2023-03-26T08:28:28;94952.91;;;7.74;100.00
3960;BME280;1994;48.640;8.894;2023-03-26T08:30:57;94962.19;;;7.75;100.00
3960;BME280;1994;48.640;8.894;2023-03-26T08:33:25;94957.09;;;7.80;100.00
3960;BME280;1994;48.640;8.894;2023-03-26T08:35:52;94959.16;;;7.83;100.00
3960;BME280;1994;48.640;8.894;2023-03-26T08:38:19;94957.50;;;7.72;100.00
3960;BME280;1994;48.640;8.894;2023-03-26T08:55:55;94962.44;;;8.05;100.00
3960;BME280;1994;48.640;8.894;2023-03-26T09:05:05;94950.53;;;8.62;100.00
3960;BME280;1994;48.640;8.894;2023-03-26T09:08:09;94952.72;;;8.85;100.00
3960;BME280;1994;48.640;8.894;2023-03-26T09:22:55;94962.34;;;10.96;92.62
3960;BME280;1994;48.640;8.894;2023-03-26T09:38:17;94946.88;;;10.61;86.28
3960;BME280;1994;48.640;8.894;2023-03-26T09:40:57;94943.97;;;11.56;81.79
3960;BME280;1994;48.640;8.894;2023-03-26T09:55:27;94957.66;;;11.08;80.73
3960;BME280;1994;48.640;8.894;2023-03-26T10:04:42;94963.97;;;14.71;66.50
3960;BME280;1994;48.640;8.894;2023-03-26T10:11:02;94954.31;;;14.71;65.68
3960;BME280;1994;48.640;8.894;2023-03-26T10:31:29;94930.34;;;14.05;63.46
3960;BME280;1994;48.640;8.894;2023-03-26T10:34:12;94948.09;;;13.43;66.11
3960;BME280;1994;48.640;8.894;2023-03-26T10:54:13;94947.59;;;16.36;56.43
3960;BME280;1994;48.640;8.894;2023-03-26T10:56:47;94948.59;;;15.69;56.13
3960;BME280;1994;48.640;8.894;2023-03-26T10:59:15;94949.47;;;14.14;60.75
3960;BME280;1994;48.640;8.894;2023-03-26T11:02:12;94957.00;;;14.66;59.40
3960;BME280;1994;48.640;8.894;2023-03-26T11:08:13;94964.81;;;14.16;61.10
3960;BME280;1994;48.640;8.894;2023-03-26T11:11:42;94965.44;;;14.08;58.68
3960;BME280;1994;48.640;8.894;2023-03-26T11:14:25;94951.50;;;13.99;57.89
3960;BME280;1994;48.640;8.894;2023-03-26T11:20:19;94948.00;;;15.31;54.62
3960;BME280;1994;48.640;8.894;2023-03-26T11:25:37;94951.53;;;16.69;51.17
3960;BME280;1994;48.640;8.894;2023-03-26T11:34:24;94930.97;;;17.54;46.59
3960;BME280;1994;48.640;8.894;2023-03-26T11:36:55;94931.28;;;17.61;47.17
3960;BME280;1994;48.640;8.894;2023-03-26T11:39:36;94926.09;;;16.39;48.12
3960;BME280;1994;48.640;8.894;2023-03-26T11:42:09;94924.41;;;15.23;48.44
3960;BME280;1994;48.640;8.894;2023-03-26T11:47:51;94934.06;;;15.63;46.90
3960;BME280;1994;48.640;8.894;2023-03-26T11:50:25;94932.56;;;16.19;47.06
3960;BME280;1994;48.640;8.894;2023-03-26T11:52:56;94939.78;;;16.58;47.47
3960;BME280;1994;48.640;8.894;2023-03-26T11:55:24;94938.91;;;16.71;45.08
3960;BME280;1994;48.640;8.894;2023-03-26T11:57:56;94930.78;;;17.11;44.29
3960;BME280;1994;48.640;8.894;2023-03-26T12:00:24;94926.78;;;16.09;44.13
3960;BME280;1994;48.640;8.894;2023-03-26T12:02:56;94922.75;;;16.69;44.32
3960;BME280;1994;48.640;8.894;2023-03-26T12:05:26;94923.22;;;16.05;46.56
3960;BME280;1994;48.640;8.894;2023-03-26T12:08:02;94918.91;;;16.00;45.76
3960;BME280;1994;48.640;8.894;2023-03-26T12:10:35;94935.91;;;16.55;46.18
3960;BME280;1994;48.640;8.894;2023-03-26T12:16:10;94907.03;;;15.32;47.87
3960;BME280;1994;48.640;8.894;2023-03-26T12:18:40;94916.31;;;15.11;48.36
3960;BME280;1994;48.640;8.894;2023-03-26T12:21:18;94922.47;;;14.74;49.17
3960;BME280;1994;48.640;8.894;2023-03-26T12:23:57;94917.34;;;14.69;49.41
3960;BME280;1994;48.640;8.894;2023-03-26T12:26:38;94920.00;;;15.37;49.05
3960;BME280;1994;48.640;8.894;2023-03-26T12:29:10;94904.16;;;15.06;47.49
3960;BME280;1994;48.640;8.894;2023-03-26T12:34:19;94901.81;;;14.14;50.33
3960;BME280;1994;48.640;8.894;2023-03-26T12:36:54;94894.19;;;14.36;50.49
3960;BME280;1994;48.640;8.894;2023-03-26T12:39:36;94899.88;;;15.10;47.82
3960;BME280;1994;48.640;8.894;2023-03-26T12:42:28;94898.59;;;16.41;45.30
3960;BME280;1994;48.640;8.894;2023-03-26T12:44:56;94888.56;;;16.57;43.77
3960;BME280;1994;48.640;8.894;2023-03-26T12:47:29;94886.06;;;15.86;43.59
3960;BME280;1994;48.640;8.894;2023-03-26T12:49:57;94876.31;;;15.02;46.30
3960;BME280;1994;48.640;8.894;2023-03-26T12:52:56;94870.25;;;16.57;44.26
3960;BME280;1994;48.640;8.894;2023-03-26T13:01:21;94863.91;;;16.80;44.24
3960;BME280;1994;48.640;8.894;2023-03-26T13:10:35;94857.94;;;17.44;38.40
3960;BME280;1994;48.640;8.894;2023-03-26T13:16:40;94843.59;;;17.33;39.80
3960;BME280;1994;48.640;8.894;2023-03-26T13:19:26;94840.06;;;17.97;38.45
3960;BME280;1994;48.640;8.894;2023-03-26T13:27:59;94830.03;;;15.92;40.95
3960;BME280;1994;48.640;8.894;2023-03-26T13:33:49;94826.13;;;15.81;40.71
3960;BME280;1994;48.640;8.894;2023-03-26T13:36:38;94830.03;;;16.14;42.13
3960;BME280;1994;48.640;8.894;2023-03-26T13:42:55;94828.50;;;15.69;40.82
3960;BME280;1994;48.640;8.894;2023-03-26T13:46:15;94827.41;;;15.48;42.56
3960;BME280;1994;48.640;8.894;2023-03-26T13:49:14;94833.22;;;15.18;42.28
3960;BME280;1994;48.640;8.894;2023-03-26T13:52:23;94843.47;;;15.01;43.47
3960;BME280;1994;48.640;8.894;2023-03-26T14:09:30;94900.31;;;12.40;65.15
3960;BME280;1994;48.640;8.894;2023-03-26T14:13:17;94886.88;;;12.33;65.77
3960;BME280;1994;48.640;8.894;2023-03-26T14:15:25;94878.91;;;12.24;66.74
3960;BME280;1994;48.640;8.894;2023-03-26T14:21:28;94867.53;;;11.87;69.59
3960;BME280;1994;48.640;8.894;2023-03-26T14:24:52;94875.06;;;11.88;68.24
3960;BME280;1994;48.640;8.894;2023-03-26T14:31:34;94885.34;;;11.60;73.43
3960;BME280;1994;48.640;8.894;2023-03-26T14:34:26;94877.09;;;11.48;74.92
3960;BME280;1994;48.640;8.894;2023-03-26T14:46:19;94871.38;;;11.56;71.95
3960;BME280;1994;48.640;8.894;2023-03-26T14:54:57;94888.97;;;11.64;72.30
3960;BME280;1994;48.640;8.894;2023-03-26T14:58:08;94897.81;;;11.53;72.10
3960;BME280;1994;48.640;8.894;2023-03-26T15:42:30;94909.41;;;9.02;82.16
3960;BME280;1994;48.640;8.894;2023-03-26T15:59:33;94904.34;;;8.24;85.91
3960;BME280;1994;48.640;8.894;2023-03-26T16:13:49;94909.59;;;8.34;84.44
3960;BME280;1994;48.640;8.894;2023-03-26T16:16:25;94908.63;;;8.13;86.31
3960;BME280;1994;48.640;8.894;2023-03-26T16:22:01;94923.19;;;7.66;86.66
3960;BME280;1994;48.640;8.894;2023-03-26T16:24:34;94935.34;;;7.71;86.95
3960;BME280;1994;48.640;8.894;2023-03-26T16:27:08;94943.31;;;7.69;86.61
3960;BME280;1994;48.640;8.894;2023-03-26T16:32:46;94935.34;;;7.71;88.58
3960;BME280;1994;48.640;8.894;2023-03-26T16:37:44;94945.84;;;7.64;89.60
3960;BME280;1994;48.640;8.894;2023-03-26T16:46:08;94940.69;;;7.64;88.58
3960;BME280;1994;48.640;8.894;2023-03-26T16:52:36;94947.19;;;7.72;89.83
3960;BME280;1994;48.640;8.894;2023-03-26T16:54:50;94947.81;;;7.79;89.46
3960;BME280;1994;48.640;8.894;2023-03-26T16:58:09;94954.06;;;7.88;89.19
3960;BME280;1994;48.640;8.894;2023-03-26T17:03:54;94963.63;;;7.66;88.84
3960;BME280;1994;48.640;8.894;2023-03-26T17:09:52;94961.75;;;7.83;88.70
3960;BME280;1994;48.640;8.894;2023-03-26T17:13:02;94962.66;;;7.98;88.03
3960;BME280;1994;48.640;8.894;2023-03-26T17:15:42;94960.34;;;7.97;87.27
3960;BME280;1994;48.640;8.894;2023-03-26T17:18:56;94970.63;;;7.70;87.78
3960;BME280;1994;48.640;8.894;2023-03-26T17:22:25;94975.13;;;7.80;87.21
3960;BME280;1994;48.640;8.894;2023-03-26T17:25:35;94974.53;;;7.73;86.54
3960;BME280;1994;48.640;8.894;2023-03-26T17:30:59;94963.34;;;7.36;88.95
3960;BME280;1994;48.640;8.894;2023-03-26T17:33:32;94957.50;;;7.24;88.54
3960;BME280;1994;48.640;8.894;2023-03-26T17:36:43;94960.88;;;7.24;89.53
3960;BME280;1994;48.640;8.894;2023-03-26T17:42:33;94963.47;;;7.03;89.61
3960;BME280;1994;48.640;8.894;2023-03-26T17:45:08;94954.72;;;7.04;90.01
3960;BME280;1994;48.640;8.894;2023-03-26T17:48:07;94962.38;;;6.99;90.07
3960;BME280;1994;48.640;8.894;2023-03-26T17:50:44;94966.13;;;6.91;90.67
3960;BME280;1994;48.640;8.894;2023-03-26T17:53:37;94962.41;;;6.82;91.44
3960;BME280;1994;48.640;8.894;2023-03-26T17:56:15;94964.34;;;6.92;91.06
3960;BME280;1994;48.640;8.894;2023-03-26T17:58:45;94966.44;;;6.95;91.50
3960;BME280;1994;48.640;8.894;2023-03-26T18:01:39;94963.94;;;7.00;91.63
3960;BME280;1994;48.640;8.894;2023-03-26T18:04:16;94958.06;;;6.83;92.51
3960;BME280;1994;48.640;8.894;2023-03-26T18:16:15;94960.56;;;6.78;93.36
3960;BME280;1994;48.640;8.894;2023-03-26T18:19:01;94952.41;;;6.86;93.17
3960;BME280;1994;48.640;8.894;2023-03-26T18:21:39;94960.69;;;6.88;93.34
3960;BME280;1994;48.640;8.894;2023-03-26T18:24:13;94963.66;;;6.80;92.89
3960;BME280;1994;48.640;8.894;2023-03-26T18:26:57;94966.88;;;6.87;92.91
3960;BME280;1994;48.640;8.894;2023-03-26T18:29:36;94971.44;;;6.85;92.97
3960;BME280;1994;48.640;8.894;2023-03-26T18:34:44;94967.19;;;6.74;92.98
3960;BME280;1994;48.640;8.894;2023-03-26T18:37:27;94979.75;;;6.70;93.51
3960;BME280;1994;48.640;8.894;2023-03-26T18:40:07;94983.19;;;6.76;93.04
3960;BME280;1994;48.640;8.894;2023-03-26T18:42:38;94983.28;;;6.86;93.19
3960;BME280;1994;48.640;8.894;2023-03-26T18:45:31;94995.19;;;6.87;93.58
3960;BME280;1994;48.640;8.894;2023-03-26T18:48:22;94989.53;;;6.90;93.90
3960;BME280;1994;48.640;8.894;2023-03-26T18:51:07;94984.81;;;7.03;93.46
3960;BME280;1994;48.640;8.894;2023-03-26T18:53:47;94970.50;;;6.91;93.44
3960;BME280;1994;48.640;8.894;2023-03-26T18:56:39;94979.53;;;6.93;93.08
3960;BME280;1994;48.640;8.894;2023-03-26T18:59:27;94970.75;;;7.11;92.79
3960;BME280;1994;48.640;8.894;2023-03-26T19:02:10;94974.47;;;7.20;92.36
3960;BME280;1994;48.640;8.894;2023-03-26T19:04:38;94983.22;;;7.19;92.82
3960;BME280;1994;48.640;8.894;2023-03-26T19:07:13;94982.84;;;7.32;93.13
3960;BME280;1994;48.640;8.894;2023-03-26T19:09:41;94980.41;;;7.42;93.32
3960;BME280;1994;48.640;8.894;2023-03-26T19:12:18;94988.72;;;7.49;93.27
3960;BME280;1994;48.640;8.894;2023-03-26T19:15:04;95001.91;;;7.31;93.21
3960;BME280;1994;48.640;8.894;2023-03-26T19:17:41;94994.34;;;7.46;93.78
3960;BME280;1994;48.640;8.894;2023-03-26T19:20:30;94986.13;;;7.49;93.91
3960;BME280;1994;48.640;8.894;2023-03-26T19:22:57;94987.63;;;7.45;92.80
3960;BME280;1994;48.640;8.894;2023-03-26T19:25:32;94981.47;;;7.24;91.43
3960;BME280;1994;48.640;8.894;2023-03-26T19:28:01;94979.31;;;7.38;90.02
3960;BME280;1994;48.640;8.894;2023-03-26T19:30:31;94972.59;;;6.94;90.11
3960;BME280;1994;48.640;8.894;2023-03-26T19:33:12;94960.47;;;7.11;91.10
3960;BME280;1994;48.640;8.894;2023-03-26T19:35:40;94965.91;;;6.93;90.08
3960;BME280;1994;48.640;8.894;2023-03-26T19:38:37;94964.81;;;6.89;89.97
3960;BME280;1994;48.640;8.894;2023-03-26T19:41:21;94965.09;;;6.71;90.75
3960;BME280;1994;48.640;8.894;2023-03-26T19:43:53;94970.88;;;6.61;89.82
3960;BME280;1994;48.640;8.894;2023-03-26T19:46:24;94973.84;;;6.53;90.18
3960;BME280;1994;48.640;8.894;2023-03-26T19:48:55;94974.25;;;6.45;90.07
3960;BME280;1994;48.640;8.894;2023-03-26T19:51:36;94970.91;;;6.28;90.30
3960;BME280;1994;48.640;8.894;2023-03-26T19:54:14;94963.25;;;6.00;92.13
3960;BME280;1994;48.640;8.894;2023-03-26T19:56:41;94959.28;;;5.93;92.95
3960;BME280;1994;48.640;8.894;2023-03-26T19:59:07;94959.84;;;5.95;93.04